KMFR/MFR METAR and TAF weather

Enter ICAO airport designator
Station Type Date Time Source
KMFR METAR 2019/04/21 21:53 UTC NOAA

KMFR 212153Z VRB04KT 10SM CLR 18/03 A3020 RMK AO2 SLP226 T01780033


Station Type Date Time Source
KMFR Decoded METAR 2019/04/21 21:53 UTC NOAA

ROGUE VALLEY INTERNATIONAL AIRPORT, OR, United States (KMFR) 42-23N 122-53W 396M
Apr 21, 2019 - 05:53 PM EDT / 2019.04.21 2153 UTC
Wind: Variable at 5 MPH (4 KT):0
Visibility: 10 mile(s):0
Sky conditions: clear
Temperature: 64.0 F (17.8 C)
Dew Point: 37.9 F (3.3 C)
Relative Humidity: 37%
Pressure (altimeter): 30.2 in. Hg (1022 hPa)
ob: KMFR 212153Z VRB04KT 10SM CLR 18/03 A3020 RMK AO2 SLP226 T01780033
cycle: 22

Station Type Date Time Source
KMFR TAF 2019/04/21 18:42 UTC NOAA

TAF KMFR 211740Z 2118/2218 VRB03KT P6SM SCT030
FM212300 33008KT P6SM SCT250
FM220400 00000KT P6SM SCT250

Example: see airport list